This is the latest recevied weather packets stored in our database for station/object N5XJB. If no packets are shown the sender has not sent any weather packets the latest 10 day(s).
| Time | Temp. | Humidity | Pressure | Rain* | Wind** | Luminosity | Snow |
|---|---|---|---|---|---|---|---|
| 1777573506 | 28.33° C | 75% | 1011.4 hPa | 0 mm | - | 238 W/m² | - |
| 1777573203 | 28.89° C | 75% | 1011.4 hPa | 0 mm | - | 313 W/m² | - |
| 1777572899 | 28.33° C | 73% | 1011.4 hPa | 0 mm | - | 458 W/m² | - |
| 1777572595 | 27.78° C | 75% | 1011.4 hPa | 0 mm | - | 941 W/m² | - |
| 1777572295 | 28.33° C | 74% | 1011.7 hPa | 0 mm | - | 283 W/m² | - |
| 1777571991 | 28.89° C | 74% | 1011.7 hPa | 0 mm | - | 326 W/m² | - |
| 1777571685 | 28.33° C | 75% | 1011.7 hPa | 0 mm | - | 658 W/m² | - |
| 1777571384 | 28.33° C | 75% | 1011.7 hPa | 0 mm | - | 366 W/m² | - |
| 1777571079 | 28.89° C | 74% | 1011.7 hPa | 0 mm | - | 380 W/m² | - |
| 1777570775 | 28.33° C | 76% | 1012.1 hPa | 0 mm | - | 933 W/m² | - |
| 1777570472 | 28.33° C | 76% | 1011.4 hPa | 0 mm | - | 297 W/m² | - |
| 1777570168 | 28.89° C | 73% | 1011.7 hPa | 0 mm | - | 223 W/m² | - |
| 1777569864 | 29.44° C | 72% | 1011.4 hPa | 0 mm | - | 412 W/m² | - |
| 1777569560 | 28.89° C | 73% | 1011.4 hPa | 0 mm | - | 808 W/m² | - |
| 1777569256 | 28.89° C | 74% | 1011.4 hPa | 0 mm | - | 422 W/m² | - |
| 1777568953 | 28.33° C | 75% | 1011 hPa | 0 mm | - | 439 W/m² | - |
| 1777568649 | 27.78° C | 77% | 1011.4 hPa | 0 mm | - | 805 W/m² | - |
| 1777568347 | 27.78° C | 77% | 1011.7 hPa | 0 mm | - | 377 W/m² | - |
| 1777568044 | 28.33° C | 77% | 1011.4 hPa | 0 mm | - | 528 W/m² | - |
| 1777567740 | 27.78° C | 77% | 1011.4 hPa | 0 mm | - | 416 W/m² | - |
| 1777567437 | 27.78° C | 78% | 1011.7 hPa | 0 mm | - | 355 W/m² | - |
| 1777567135 | 27.78° C | 78% | 1011.7 hPa | 0 mm | - | 356 W/m² | - |
| 1777566833 | 27.22° C | 78% | 1011.7 hPa | 0 mm | - | 287 W/m² | - |
| 1777566530 | 26.67° C | 79% | 1011.7 hPa | 0 mm | - | 447 W/m² | - |
| 1777566228 | 26.67° C | 80% | 1012.1 hPa | 0 mm | - | 350 W/m² | - |
* Rain latest hour (hover to see other rain measurements)
** Current wind speed in m/s (hover to see current wind gust speed)